This is the latest recevied weather packets stored in our database for station/object CQ0XSM-11. If no packets are shown the sender has not sent any weather packets the latest 10 day(s).
| Time | Temp. | Humidity | Pressure | Rain* | Wind** | Luminosity | Snow |
|---|---|---|---|---|---|---|---|
| 1778066084 | 15.56° C | 48% | 994 hPa | 0 mm | - | - | - |
| 1778065489 | 16.67° C | 42% | 994 hPa | 0 mm | - | - | - |
| 1778064867 | 15.56° C | 45% | 994 hPa | 0 mm | - | - | - |
| 1778064579 | 15.56° C | 47% | 994 hPa | 0 mm | - | - | - |
| 1778064271 | 15° C | 50% | 994.1 hPa | 0 mm | - | - | - |
| 1778063968 | 14.44° C | 54% | 994.1 hPa | 0 mm | - | - | - |
| 1778063660 | 14.44° C | 51% | 994.2 hPa | 0 mm | - | - | - |
| 1778063364 | 14.44° C | 55% | 994.2 hPa | 0 mm | - | - | - |
| 1778063047 | 14.44° C | 57% | 994.2 hPa | 0 mm | - | - | - |
| 1778062756 | 13.89° C | 55% | 994.3 hPa | 0 mm | - | - | - |
| 1778062446 | 13.89° C | 58% | 994.3 hPa | 0 mm | - | - | - |
| 1778062168 | 13.89° C | 59% | 994.2 hPa | 0 mm | - | - | - |
| 1778061840 | 14.44° C | 58% | 994.3 hPa | 0 mm | - | - | - |
| 1778061594 | 14.44° C | 59% | 994.3 hPa | 0 mm | - | - | - |
| 1778061239 | 14.44° C | 59% | 994.3 hPa | 0 mm | - | - | - |
| 1778060953 | 14.44° C | 61% | 994.4 hPa | 0 mm | - | - | - |
| 1778060625 | 14.44° C | 63% | 994.3 hPa | 0 mm | - | - | - |
| 1778060367 | 14.44° C | 63% | 994.3 hPa | 0 mm | - | - | - |
| 1778060013 | 13.89° C | 69% | 994.3 hPa | 0 mm | - | - | - |
| 1778059414 | 13.33° C | 72% | 994.4 hPa | 0 mm | - | - | - |
| 1778059118 | 12.78° C | 75% | 994.4 hPa | 0 mm | - | - | - |
| 1778058807 | 12.78° C | 69% | 994.4 hPa | 0 mm | - | - | - |
| 1778058514 | 12.78° C | 77% | 994.4 hPa | 0 mm | - | - | - |
| 1778058201 | 12.78° C | 79% | 994.5 hPa | 0 mm | - | - | - |
| 1778057909 | 12.22° C | 84% | 994.5 hPa | 0 mm | - | - | - |
* Rain since midnight (hover to see other rain measurements)
** Current wind speed in m/s (hover to see current wind gust speed)